Time;durP1;ratioP1;P1;durP2;ratioP2;P2;SDS_P1;SDS_P2;PMS_P1;PMS_P2;Temp;Humidity;BMP_temperature;BMP_pressure;BME280_temperature;BME280_humidity;BME280_pressure;Samples;Min_cycle;Max_cycle;Signal;HPM_P1;HPM_P2
2022/12/04 00:01:20;;;;;;;4.07;1.13;;;32.00;47.50;;;;;;5005827;28;20037;-67
2022/12/04 00:03:47;;;;;;;3.67;1.30;;;31.80;48.60;;;;;;5011267;28;20049;-66
2022/12/04 00:06:19;;;;;;;1.85;0.80;;;32.30;49.60;;;;;;5007314;28;20406;-79
2022/12/04 00:08:47;;;;;;;6.55;1.90;;;31.70;49.00;;;;;;5008922;28;20030;-71
2022/12/04 00:11:21;;;;;;;3.60;0.90;;;31.20;50.50;;;;;;5005043;28;20026;-71
2022/12/04 00:13:49;;;;;;;2.38;1.20;;;31.60;50.20;;;;;;5006478;28;20514;-71
2022/12/04 00:16:18;;;;;;;5.03;0.98;;;31.70;49.50;;;;;;4997539;28;20040;-70
2022/12/04 00:18:45;;;;;;;2.67;0.82;;;31.00;47.30;;;;;;5008190;28;20026;-69
2022/12/04 00:21:14;;;;;;;3.13;0.73;;;30.40;50.50;;;;;;5007303;28;20038;-67
2022/12/04 00:23:43;;;;;;;2.65;0.80;;;30.00;51.00;;;;;;5009140;28;20025;-66
2022/12/04 00:26:32;;;;;;;2.95;1.17;;;29.60;50.90;;;;;;5012219;28;20030;-66
2022/12/04 00:29:00;;;;;;;3.28;1.10;;;29.20;52.20;;;;;;5003354;28;20371;-67
2022/12/04 00:31:29;;;;;;;2.05;0.95;;;28.80;51.80;;;;;;5003652;28;20026;-66
2022/12/04 00:33:57;;;;;;;3.40;0.90;;;28.80;53.60;;;;;;5011610;28;20505;-68
2022/12/04 00:36:26;;;;;;;4.93;0.85;;;28.70;50.80;;;;;;5013375;28;20113;-65
2022/12/04 00:38:54;;;;;;;10.07;1.00;;;27.80;54.60;;;;;;5012858;28;20029;-66
2022/12/04 00:41:25;;;;;;;6.30;0.98;;;27.60;53.80;;;;;;5013509;28;20038;-66
2022/12/04 00:43:53;;;;;;;3.30;0.70;;;27.40;53.60;;;;;;5012848;28;20088;-66
2022/12/04 00:46:21;;;;;;;3.10;0.98;;;27.30;55.70;;;;;;5003679;28;20113;-66
2022/12/04 00:48:48;;;;;;;2.58;1.02;;;27.00;56.30;;;;;;5010613;28;20553;-65
2022/12/04 00:51:18;;;;;;;4.90;0.75;;;26.90;56.30;;;;;;5009132;28;20640;-66
2022/12/04 00:53:46;;;;;;;4.68;1.35;;;27.10;57.20;;;;;;5009299;28;20137;-66
2022/12/04 00:56:22;;;;;;;1.52;0.60;;;27.30;56.40;;;;;;5010413;28;20026;-65
2022/12/04 00:58:55;;;;;;;4.55;0.90;;;27.80;56.20;;;;;;5010822;28;20022;-66
2022/12/04 01:01:23;;;;;;;2.30;1.00;;;29.00;58.30;;;;;;5010246;28;20088;-68
2022/12/04 01:03:51;;;;;;;2.72;0.70;;;30.20;56.70;;;;;;5011744;28;20368;-67
2022/12/04 01:06:27;;;;;;;2.53;1.20;;;30.20;51.10;;;;;;5011589;28;20152;-66
2022/12/04 01:08:56;;;;;;;2.85;0.90;;;30.30;50.60;;;;;;5027650;28;20021;-66
2022/12/04 01:11:25;;;;;;;2.88;1.63;;;30.30;52.10;;;;;;5009021;28;20511;-65
2022/12/04 01:13:53;;;;;;;1.58;0.70;;;30.90;52.20;;;;;;5009058;28;20033;-65
2022/12/04 01:16:24;;;;;;;3.22;0.80;;;31.30;49.20;;;;;;5009594;28;20033;-66
2022/12/04 01:18:52;;;;;;;4.50;1.20;;;31.40;50.90;;;;;;4990510;28;20030;-66
2022/12/04 01:21:20;;;;;;;5.55;1.52;;;32.10;48.10;;;;;;5001465;28;20130;-66
2022/12/04 01:23:47;;;;;;;4.75;1.60;;;32.70;47.00;;;;;;5021886;28;20450;-68
2022/12/04 01:26:14;;;;;;;4.78;1.33;;;33.00;46.50;;;;;;5010033;28;20382;-67
2022/12/04 01:28:41;;;;;;;4.85;2.47;;;33.10;46.50;;;;;;5009763;28;20678;-67
2022/12/04 01:31:12;;;;;;;3.28;0.80;;;33.20;46.20;;;;;;5008449;28;20038;-66
2022/12/04 01:33:41;;;;;;;2.10;0.90;;;32.20;45.60;;;;;;5009046;28;20426;-65
2022/12/04 01:36:12;;;;;;;4.85;2.13;;;31.70;47.00;;;;;;5004331;28;20041;-66
2022/12/04 01:38:40;;;;;;;3.78;1.48;;;31.50;48.30;;;;;;5004511;28;20030;-66
2022/12/04 01:41:10;;;;;;;6.10;2.00;;;31.00;49.40;;;;;;5009749;28;20061;-66
2022/12/04 01:43:38;;;;;;;1.63;0.82;;;30.80;48.20;;;;;;5004550;28;20068;-66
2022/12/04 01:46:07;;;;;;;1.48;0.80;;;30.60;47.30;;;;;;5004622;28;21337;-66
2022/12/04 01:48:39;;;;;;;3.22;1.10;;;29.60;48.30;;;;;;5007340;28;20037;-66
2022/12/04 01:51:24;;;;;;;2.70;0.90;;;29.20;49.50;;;;;;5008112;28;20117;-69
2022/12/04 01:54:03;;;;;;;3.75;1.98;;;29.00;52.20;;;;;;5007471;28;20383;-66
2022/12/04 01:56:45;;;;;;;5.13;1.40;;;29.80;49.30;;;;;;5022490;28;20358;-68
2022/12/04 01:59:17;;;;;;;5.72;1.27;;;30.60;51.30;;;;;;5004157;28;20057;-66
2022/12/04 02:01:56;;;;;;;5.05;2.10;;;31.20;52.30;;;;;;5009221;28;20042;-66
2022/12/04 02:04:23;;;;;;;5.07;1.92;;;31.90;47.00;;;;;;5007037;28;20077;-66
2022/12/04 02:06:51;;;;;;;3.70;1.88;;;32.30;48.80;;;;;;5006443;28;20120;-64
2022/12/04 02:09:20;;;;;;;3.90;2.03;;;32.30;47.50;;;;;;5006430;28;20026;-66
2022/12/04 02:12:16;;;;;;;7.35;2.28;;;32.20;46.90;;;;;;5006904;28;20040;-67
2022/12/04 02:15:05;;;;;;;5.93;1.92;;;32.20;45.70;;;;;;4995319;28;20570;-64
2022/12/04 02:17:38;;;;;;;4.38;1.92;;;31.20;44.30;;;;;;5006772;28;20155;-64
2022/12/04 02:20:29;;;;;;;5.68;2.60;;;30.20;46.00;;;;;;5004960;28;20037;-64
2022/12/04 02:23:19;;;;;;;2.40;0.98;;;29.20;47.10;;;;;;5004974;28;20403;-66
2022/12/04 02:26:07;;;;;;;6.57;1.40;;;28.70;48.90;;;;;;5005033;28;20080;-66
2022/12/04 02:28:41;;;;;;;2.90;1.17;;;28.60;50.20;;;;;;5006109;28;20136;-67
2022/12/04 02:31:19;;;;;;;3.33;1.50;;;28.80;50.70;;;;;;5007054;28;20030;-67
2022/12/04 02:34:03;;;;;;;4.25;0.98;;;28.90;49.60;;;;;;4999262;28;20026;-69
2022/12/04 02:36:35;;;;;;;3.90;1.47;;;29.30;48.60;;;;;;5006843;28;20056;-68
2022/12/04 02:39:10;;;;;;;4.43;1.25;;;29.00;49.30;;;;;;5005292;28;20368;-67
2022/12/04 02:41:44;;;;;;;4.18;1.30;;;28.80;48.80;;;;;;5005657;28;20044;-68
2022/12/04 02:44:29;;;;;;;3.58;1.30;;;28.50;49.40;;;;;;5002736;28;20578;-68
2022/12/04 02:47:03;;;;;;;3.10;1.05;;;29.00;50.80;;;;;;4992252;28;20756;-68
2022/12/04 02:49:41;;;;;;;3.38;1.73;;;29.70;52.00;;;;;;4992032;28;20027;-68
2022/12/04 02:52:11;;;;;;;2.90;1.60;;;30.70;50.60;;;;;;5004684;28;20041;-68
2022/12/04 02:54:52;;;;;;;3.05;1.35;;;31.40;48.20;;;;;;5004712;28;20025;-67
2022/12/04 02:57:26;;;;;;;3.08;1.20;;;32.10;50.00;;;;;;5005449;28;20511;-67
2022/12/04 02:59:55;;;;;;;4.47;1.38;;;32.80;46.00;;;;;;5007413;28;20041;-67
2022/12/04 03:02:32;;;;;;;1.95;1.10;;;33.20;47.90;;;;;;4998627;28;20042;-68
2022/12/04 03:05:07;;;;;;;2.72;1.20;;;33.70;49.00;;;;;;4997607;28;20402;-67
2022/12/04 03:07:39;;;;;;;1.92;0.98;;;34.10;43.00;;;;;;5003657;28;20045;-67
2022/12/04 03:10:13;;;;;;;1.52;0.90;;;33.50;42.90;;;;;;5004246;28;20093;-66
2022/12/04 03:12:47;;;;;;;2.25;1.23;;;33.30;44.10;;;;;;5008425;28;20029;-68
2022/12/04 03:15:39;;;;;;;;;;;33.70;45.50;;;;;;5004413;28;20022;-68
2022/12/04 03:18:22;;;;;;;5.38;1.35;;;34.30;47.90;;;;;;5006298;28;20284;-67
2022/12/04 03:20:58;;;;;;;0.90;0.73;;;33.80;43.30;;;;;;5008191;28;20029;-67
2022/12/04 03:23:43;;;;;;;1.83;0.90;;;33.50;45.00;;;;;;5009641;28;20302;-67
2022/12/04 03:26:25;;;;;;;2.05;0.98;;;33.50;42.80;;;;;;5006705;28;20536;-67
2022/12/04 03:29:08;;;;;;;2.95;0.88;;;32.80;43.30;;;;;;5005743;28;20022;-70
2022/12/04 03:31:58;;;;;;;2.42;1.30;;;32.80;47.70;;;;;;5004029;28;20514;-67
2022/12/04 03:34:35;;;;;;;1.42;0.85;;;32.90;45.00;;;;;;5006427;28;20061;-67
2022/12/04 03:37:09;;;;;;;2.97;0.90;;;33.30;47.10;;;;;;5008816;28;20523;-67
2022/12/04 03:39:54;;;;;;;3.80;0.90;;;33.60;46.20;;;;;;5009881;28;20426;-66
2022/12/04 03:42:37;;;;;;;4.47;1.15;;;33.70;45.90;;;;;;5009504;28;20495;-66
2022/12/04 03:45:30;;;;;;;4.00;1.02;;;33.80;42.10;;;;;;5009007;28;20030;-66
2022/12/04 03:48:15;;;;;;;2.70;1.00;;;32.40;43.40;;;;;;5005279;28;20076;-66
2022/12/04 03:50:50;;;;;;;2.53;1.02;;;32.30;43.80;;;;;;5000089;28;20030;-65
2022/12/04 03:53:25;;;;;;;2.45;0.90;;;32.40;44.50;;;;;;5007402;28;20038;-66
2022/12/04 03:56:01;;;;;;;2.85;1.00;;;32.10;43.60;;;;;;4996678;28;20029;-66
2022/12/04 03:58:33;;;;;;;2.45;0.95;;;32.10;44.50;;;;;;5006364;28;20376;-66
2022/12/04 04:01:03;;;;;;;1.95;0.90;;;31.60;45.10;;;;;;5007273;28;20062;-66
2022/12/04 04:03:36;;;;;;;2.47;1.00;;;31.80;43.80;;;;;;5004256;28;20021;-66
2022/12/04 04:06:18;;;;;;;1.73;0.70;;;31.90;46.40;;;;;;4985772;28;20084;-66
2022/12/04 04:08:50;;;;;;;2.83;0.90;;;31.60;44.10;;;;;;5000008;28;20014;-66
2022/12/04 04:11:34;;;;;;;2.45;0.82;;;31.50;44.40;;;;;;5006374;28;20054;-66
2022/12/04 04:25:52;;;;;;;2.67;1.10;;;32.80;45.00;;;;;;5010212;28;20069;-63
2022/12/04 04:28:38;;;;;;;1.63;0.90;;;33.50;44.10;;;;;;5009641;28;20034;-64
2022/12/04 04:31:37;;;;;;;1.67;0.70;;;33.70;45.50;;;;;;5008284;28;20029;-63
2022/12/04 04:34:10;;;;;;;1.20;0.70;;;33.30;41.20;;;;;;5003477;28;20048;-63
2022/12/04 04:36:52;;;;;;;2.40;0.95;;;33.10;42.60;;;;;;5009557;28;20018;-63
2022/12/04 04:39:35;;;;;;;2.25;0.90;;;33.10;43.80;;;;;;5009694;28;20034;-63
2022/12/04 04:42:17;;;;;;;4.63;0.90;;;33.10;43.20;;;;;;5009598;28;20026;-63
2022/12/04 04:44:48;;;;;;;1.30;0.70;;;32.80;43.50;;;;;;5009475;28;20029;-63
2022/12/04 04:47:52;;;;;;;1.85;0.93;;;32.70;43.20;;;;;;5009490;28;20022;-63
2022/12/04 04:50:21;;;;;;;2.92;0.70;;;32.60;41.70;;;;;;4990333;28;20062;-63
2022/12/04 04:52:54;;;;;;;2.38;0.68;;;31.90;43.90;;;;;;4990348;28;20109;-63
2022/12/04 04:55:22;;;;;;;1.77;0.82;;;32.00;44.50;;;;;;4990343;28;20534;-63
2022/12/04 04:57:49;;;;;;;2.55;0.75;;;32.30;45.90;;;;;;4992577;28;20050;-62
2022/12/04 05:00:20;;;;;;;2.97;0.80;;;32.80;45.00;;;;;;5009269;28;20105;-62
2022/12/04 05:02:49;;;;;;;1.95;0.90;;;33.10;44.10;;;;;;5009822;28;20368;-63
2022/12/04 05:05:16;;;;;;;3.67;1.23;;;33.20;42.20;;;;;;5009456;28;20089;-62
2022/12/04 05:07:43;;;;;;;2.92;0.93;;;33.10;44.00;;;;;;5008959;28;20034;-63
2022/12/04 05:10:11;;;;;;;2.72;0.90;;;33.00;42.90;;;;;;5011775;28;20557;-63
2022/12/04 05:12:38;;;;;;;1.52;0.73;;;32.60;43.70;;;;;;5013061;28;20026;-63
2022/12/04 05:15:06;;;;;;;2.70;0.77;;;32.50;43.90;;;;;;5012722;28;20112;-62
2022/12/04 05:17:35;;;;;;;3.05;0.98;;;32.60;45.30;;;;;;5012384;28;20352;-62
2022/12/04 05:20:04;;;;;;;8.38;1.10;;;32.60;43.90;;;;;;5012693;28;20044;-63
2022/12/04 05:22:35;;;;;;;1.55;0.98;;;32.50;44.30;;;;;;5012653;28;20036;-63
2022/12/04 05:25:03;;;;;;;3.10;1.02;;;32.50;45.20;;;;;;5012522;28;20022;-62
2022/12/04 05:27:31;;;;;;;3.90;1.13;;;31.80;47.60;;;;;;5012257;28;20029;-62
2022/12/04 05:29:59;;;;;;;5.68;1.20;;;30.90;48.80;;;;;;5012473;28;20025;-62
2022/12/04 05:32:28;;;;;;;3.15;0.82;;;30.30;50.10;;;;;;5012167;28;20026;-62
2022/12/04 05:34:56;;;;;;;3.95;1.00;;;29.80;50.90;;;;;;5012183;28;20057;-63
2022/12/04 05:37:24;;;;;;;5.53;1.20;;;29.50;51.80;;;;;;5012653;28;20375;-65
2022/12/04 05:39:52;;;;;;;3.40;0.90;;;29.10;52.40;;;;;;4993244;28;20033;-62
2022/12/04 05:42:19;;;;;;;3.75;1.15;;;28.90;52.90;;;;;;5008793;28;20095;-62
2022/12/04 05:44:48;;;;;;;3.10;1.05;;;28.70;53.80;;;;;;5012107;28;20021;-63
2022/12/04 05:47:16;;;;;;;4.28;1.05;;;28.40;53.90;;;;;;5012173;28;20532;-62
2022/12/04 05:49:43;;;;;;;3.70;1.20;;;28.30;55.00;;;;;;5012187;28;21264;-62
2022/12/04 05:52:11;;;;;;;4.22;0.90;;;28.40;54.90;;;;;;5011829;28;20748;-63
2022/12/04 05:54:39;;;;;;;2.97;0.70;;;28.30;54.20;;;;;;5012054;28;20033;-61
2022/12/04 05:57:06;;;;;;;4.25;1.13;;;28.00;55.10;;;;;;5011821;28;20061;-62
2022/12/04 05:59:33;;;;;;;3.28;0.88;;;28.00;55.90;;;;;;5011727;28;20045;-62
2022/12/04 06:02:01;;;;;;;4.13;1.10;;;28.10;55.60;;;;;;5011402;28;20029;-62
2022/12/04 06:04:28;;;;;;;2.78;1.95;;;28.00;55.90;;;;;;5011885;28;20479;-62
2022/12/04 06:06:55;;;;;;;2.85;0.80;;;28.20;55.30;;;;;;5011711;28;20026;-62
2022/12/04 06:09:22;;;;;;;2.17;0.60;;;28.10;55.60;;;;;;5011902;28;20018;-62
2022/12/04 06:11:49;;;;;;;2.42;0.70;;;28.10;55.80;;;;;;5011875;28;20173;-62
2022/12/04 06:14:17;;;;;;;2.65;0.80;;;28.20;55.30;;;;;;5011456;28;20022;-62
2022/12/04 06:16:46;;;;;;;5.07;1.33;;;28.20;55.90;;;;;;5011488;28;20258;-62
2022/12/04 06:19:18;;;;;;;4.90;1.10;;;28.00;56.20;;;;;;5011512;28;20430;-62
2022/12/04 06:21:48;;;;;;;5.80;1.15;;;27.90;56.00;;;;;;5010460;28;20175;-62
2022/12/04 06:24:18;;;;;;;3.53;1.20;;;27.80;56.40;;;;;;5011538;28;20022;-62
2022/12/04 06:26:46;;;;;;;5.60;1.45;;;27.80;56.20;;;;;;5011442;28;20033;-62
2022/12/04 06:29:13;;;;;;;4.38;0.93;;;27.90;56.20;;;;;;5010799;28;20029;-62
2022/12/04 06:31:41;;;;;;;3.30;1.00;;;27.90;55.80;;;;;;5010866;28;20037;-62
2022/12/04 06:34:09;;;;;;;5.93;0.70;;;28.00;55.80;;;;;;5011170;28;20042;-63
2022/12/04 06:36:37;;;;;;;1.70;0.65;;;27.70;56.20;;;;;;5026205;28;20364;-62
2022/12/04 06:39:04;;;;;;;6.45;0.90;;;27.50;56.40;;;;;;5011328;28;20076;-62
2022/12/04 06:41:32;;;;;;;3.47;0.70;;;27.30;56.90;;;;;;5010776;28;20030;-63
2022/12/04 06:43:59;;;;;;;3.63;1.02;;;27.30;57.00;;;;;;5010989;28;20025;-62
2022/12/04 06:46:30;;;;;;;4.18;0.95;;;27.20;56.80;;;;;;5010910;28;20125;-63
2022/12/04 06:48:58;;;;;;;4.97;1.00;;;27.00;57.70;;;;;;5011038;28;20022;-63
2022/12/04 06:51:28;;;;;;;3.10;0.95;;;26.90;57.70;;;;;;5010790;28;20037;-62
2022/12/04 06:53:56;;;;;;;5.63;0.77;;;26.80;58.10;;;;;;5010852;28;20022;-63
2022/12/04 06:56:25;;;;;;;1.98;0.65;;;26.70;58.40;;;;;;5011236;28;20026;-62
2022/12/04 06:58:55;;;;;;;2.42;0.73;;;26.60;58.30;;;;;;5011154;28;20026;-62
2022/12/04 07:01:25;;;;;;;4.35;0.80;;;26.70;57.50;;;;;;5010855;28;20061;-62
2022/12/04 07:03:53;;;;;;;2.53;0.90;;;26.50;57.80;;;;;;5011201;28;20022;-62
2022/12/04 07:06:29;;;;;;;4.93;0.70;;;26.50;58.10;;;;;;5010787;28;20081;-62
2022/12/04 07:09:10;;;;;;;2.40;0.70;;;26.50;58.20;;;;;;5010700;28;20487;-62
2022/12/04 07:11:39;;;;;;;1.98;0.80;;;26.30;57.90;;;;;;5010231;28;20037;-62
2022/12/04 07:14:06;;;;;;;4.32;0.82;;;26.20;58.60;;;;;;5010502;28;20025;-62
2022/12/04 07:16:34;;;;;;;5.45;0.80;;;26.00;59.30;;;;;;5010382;28;20443;-62
2022/12/04 07:19:01;;;;;;;1.98;0.85;;;26.00;59.30;;;;;;5010357;28;20030;-62
2022/12/04 07:21:30;;;;;;;4.38;0.93;;;25.80;59.20;;;;;;5010120;28;20088;-62
2022/12/04 07:24:00;;;;;;;2.88;1.00;;;25.70;59.90;;;;;;5010417;28;20060;-63
2022/12/04 07:26:29;;;;;;;2.13;0.60;;;25.70;60.30;;;;;;5010487;28;20076;-63
2022/12/04 07:28:57;;;;;;;3.75;0.68;;;25.50;60.80;;;;;;5010314;28;20036;-65
2022/12/04 07:31:26;;;;;;;3.78;0.95;;;25.50;61.30;;;;;;5010584;28;20030;-64
2022/12/04 07:33:54;;;;;;;3.33;1.00;;;25.40;62.10;;;;;;5009698;28;20076;-63
2022/12/04 07:36:23;;;;;;;7.57;0.80;;;25.30;61.80;;;;;;5010788;28;20025;-63
2022/12/04 07:38:51;;;;;;;2.75;0.98;;;25.10;62.50;;;;;;5010469;28;20834;-63
2022/12/04 07:41:19;;;;;;;4.22;0.70;;;24.80;63.20;;;;;;5009775;28;20034;-63
2022/12/04 07:43:46;;;;;;;2.10;0.55;;;24.70;63.70;;;;;;5010064;28;20037;-63
2022/12/04 07:46:27;;;;;;;2.72;0.93;;;24.60;64.10;;;;;;5010113;28;20131;-63
2022/12/04 07:48:58;;;;;;;4.28;1.17;;;24.40;65.10;;;;;;5010394;28;20085;-63
2022/12/04 07:51:29;;;;;;;2.38;0.70;;;24.20;65.80;;;;;;5025489;28;20097;-63
2022/12/04 07:53:57;;;;;;;3.13;1.00;;;24.00;66.40;;;;;;5010280;28;20030;-64
2022/12/04 07:56:24;;;;;;;4.00;0.77;;;23.90;67.00;;;;;;5010358;28;20022;-63
2022/12/04 07:58:51;;;;;;;5.82;1.48;;;23.70;67.90;;;;;;5008940;28;20045;-63
2022/12/04 08:01:21;;;;;;;4.63;0.85;;;23.60;68.90;;;;;;5009449;28;20042;-63
2022/12/04 08:03:54;;;;;;;4.20;0.80;;;23.50;69.80;;;;;;5009903;28;20079;-63
2022/12/04 08:06:23;;;;;;;4.20;0.90;;;23.40;70.90;;;;;;5009832;28;20030;-63
2022/12/04 08:08:51;;;;;;;5.65;0.70;;;23.30;71.50;;;;;;5009747;28;20033;-63
2022/12/04 08:11:22;;;;;;;2.92;0.93;;;23.20;72.50;;;;;;5008379;28;20029;-63
2022/12/04 08:13:58;;;;;;;6.45;0.88;;;23.00;72.90;;;;;;5009776;28;20033;-63
2022/12/04 08:16:27;;;;;;;4.03;0.93;;;22.90;73.50;;;;;;5010122;28;20044;-64
2022/12/04 08:18:55;;;;;;;5.07;0.75;;;22.80;74.40;;;;;;5010257;28;20018;-62
2022/12/04 08:21:25;;;;;;;5.30;0.90;;;22.70;75.50;;;;;;5009283;28;20133;-62
2022/12/04 08:23:54;;;;;;;6.05;1.00;;;22.60;76.40;;;;;;5010155;28;20563;-62
2022/12/04 08:26:24;;;;;;;1.63;0.60;;;22.50;77.40;;;;;;5009524;28;20030;-62
2022/12/04 08:28:55;;;;;;;4.22;1.17;;;22.40;78.30;;;;;;5009616;28;20026;-63
2022/12/04 08:31:25;;;;;;;4.45;1.20;;;22.30;79.30;;;;;;5009543;28;20034;-63
2022/12/04 08:33:55;;;;;;;5.10;1.55;;;22.20;79.90;;;;;;5009839;28;20444;-62
2022/12/04 08:36:23;;;;;;;4.15;1.23;;;22.10;80.90;;;;;;5009974;28;20022;-63
2022/12/04 08:38:51;;;;;;;3.95;0.85;;;22.00;81.50;;;;;;5009659;28;20084;-62
2022/12/04 08:41:22;;;;;;;4.20;1.00;;;21.90;82.40;;;;;;5009260;28;20240;-62
2022/12/04 08:43:50;;;;;;;5.47;1.05;;;21.80;82.90;;;;;;5008778;28;20030;-62
2022/12/04 08:46:18;;;;;;;5.00;0.88;;;21.60;83.60;;;;;;5013302;28;20110;-62
2022/12/04 08:48:46;;;;;;;1.85;0.70;;;21.50;83.40;;;;;;5013205;28;20025;-61
2022/12/04 08:51:20;;;;;;;2.45;0.70;;;21.40;83.30;;;;;;5012947;28;20026;-63
2022/12/04 08:53:48;;;;;;;1.48;0.77;;;21.30;83.40;;;;;;5013245;28;20030;-62
2022/12/04 08:56:15;;;;;;;5.47;1.13;;;21.30;83.50;;;;;;5013041;28;20030;-62
2022/12/04 08:58:42;;;;;;;3.03;0.88;;;21.20;84.20;;;;;;5012729;28;20056;-63
2022/12/04 09:01:12;;;;;;;2.38;0.70;;;21.10;84.90;;;;;;5011246;28;20070;-63
2022/12/04 09:03:40;;;;;;;3.08;0.85;;;21.10;86.20;;;;;;5012012;28;20032;-63
2022/12/04 09:06:09;;;;;;;3.53;0.70;;;21.00;87.50;;;;;;5012957;28;20045;-63
2022/12/04 09:08:37;;;;;;;3.67;0.60;;;20.90;88.40;;;;;;5013079;28;20033;-64
2022/12/04 09:11:07;;;;;;;4.70;0.80;;;20.90;89.70;;;;;;5012731;28;20029;-63
2022/12/04 09:13:35;;;;;;;5.00;0.93;;;20.80;90.60;;;;;;4993081;28;20099;-62
2022/12/04 09:16:09;;;;;;;6.53;1.10;;;20.70;90.80;;;;;;4993168;28;20029;-62
2022/12/04 09:18:37;;;;;;;4.93;0.80;;;20.60;91.20;;;;;;5011328;28;20060;-62
2022/12/04 09:21:10;;;;;;;3.45;1.08;;;20.50;91.70;;;;;;5012420;28;20454;-63
2022/12/04 09:23:38;;;;;;;1.75;0.45;;;20.40;92.00;;;;;;4993076;28;20030;-63
2022/12/04 09:26:14;;;;;;;7.72;0.80;;;20.40;92.50;;;;;;4992925;28;20062;-63
2022/12/04 09:28:42;;;;;;;4.20;1.05;;;20.30;92.90;;;;;;4992830;28;20076;-63
2022/12/04 09:31:09;;;;;;;2.13;0.65;;;20.20;93.10;;;;;;4992891;28;20111;-62
2022/12/04 09:33:36;;;;;;;6.25;1.33;;;20.20;93.40;;;;;;5012012;28;20042;-63
2022/12/04 09:36:04;;;;;;;3.53;0.60;;;20.10;93.70;;;;;;5011004;28;20195;-63
2022/12/04 09:38:31;;;;;;;2.13;1.00;;;20.10;94.10;;;;;;5010678;28;20437;-63
2022/12/04 09:41:23;;;;;;;6.85;0.75;;;20.00;94.10;;;;;;5007059;28;20021;-66
2022/12/04 09:44:19;;;;;;;5.07;0.85;;;19.90;94.30;;;;;;5011194;28;20030;-65
2022/12/04 09:46:57;;;;;;;4.15;0.73;;;19.80;94.60;;;;;;4991200;28;20076;-69
2022/12/04 09:49:30;;;;;;;5.60;1.05;;;19.70;94.90;;;;;;5012393;28;20092;-64
2022/12/04 09:52:01;;;;;;;4.57;0.80;;;19.60;95.30;;;;;;5011746;28;20033;-65
2022/12/04 09:54:39;;;;;;;2.20;0.65;;;19.60;95.60;;;;;;5006193;28;20026;-66
2022/12/04 09:57:35;;;;;;;6.97;1.13;;;19.50;95.70;;;;;;4998722;28;20124;-65
2022/12/04 10:00:05;;;;;;;6.53;0.90;;;19.50;96.20;;;;;;4996088;28;20026;-66
2022/12/04 10:02:35;;;;;;;4.78;0.80;;;19.50;96.20;;;;;;5003879;28;20037;-64
2022/12/04 10:05:03;;;;;;;3.83;0.80;;;19.40;96.20;;;;;;5009200;28;20026;-63
2022/12/04 10:07:59;;;;;;;2.85;0.80;;;19.40;96.40;;;;;;4991531;28;20033;-64
2022/12/04 10:10:37;;;;;;;4.05;1.00;;;19.30;96.70;;;;;;4994220;28;20422;-64
2022/12/04 10:13:24;;;;;;;6.68;0.70;;;19.20;97.20;;;;;;5008811;28;20105;-62
2022/12/04 10:16:08;;;;;;;3.80;0.68;;;19.20;97.60;;;;;;5004913;28;20048;-63
2022/12/04 10:18:47;;;;;;;5.63;0.77;;;19.10;97.70;;;;;;5007402;28;20036;-63
2022/12/04 10:21:33;;;;;;;3.63;1.58;;;19.10;98.00;;;;;;5007910;28;20126;-63
2022/12/04 10:24:12;;;;;;;2.90;0.85;;;19.00;98.50;;;;;;5008791;28;20380;-62
2022/12/04 10:26:44;;;;;;;3.55;0.70;;;18.90;98.40;;;;;;5008900;28;20125;-63
2022/12/04 10:29:29;;;;;;;2.80;0.60;;;18.90;98.80;;;;;;5020212;28;20025;-63
2022/12/04 10:32:18;;;;;;;5.20;1.08;;;18.80;99.40;;;;;;5007116;28;20030;-63
2022/12/04 10:34:48;;;;;;;3.13;1.08;;;18.70;99.70;;;;;;5000171;28;20045;-62
2022/12/04 10:37:16;;;;;;;6.93;1.35;;;18.70;99.80;;;;;;5003291;28;20026;-63
2022/12/04 10:39:53;;;;;;;3.97;0.80;;;18.60;99.90;;;;;;4994939;28;20470;-65
2022/12/04 10:42:37;;;;;;;8.65;0.80;;;18.60;99.90;;;;;;5004802;28;20079;-64
2022/12/04 10:45:06;;;;;;;3.90;0.80;;;18.60;99.90;;;;;;5007483;28;20123;-64
2022/12/04 10:47:34;;;;;;;5.45;1.08;;;18.60;99.90;;;;;;5004073;28;20044;-62
2022/12/04 10:50:20;;;;;;;3.83;0.65;;;18.60;99.90;;;;;;5006053;28;20352;-62
2022/12/04 10:52:47;;;;;;;3.28;0.90;;;18.50;99.90;;;;;;4996221;28;20749;-62
2022/12/04 10:55:14;;;;;;;2.42;0.77;;;18.50;99.90;;;;;;5002813;28;20025;-63
2022/12/04 10:57:46;;;;;;;4.60;0.90;;;18.40;99.90;;;;;;5003998;28;20048;-63
2022/12/04 11:00:30;;;;;;;9.60;1.55;;;18.40;99.90;;;;;;5000437;28;20057;-63
2022/12/04 11:03:04;;;;;;;5.55;0.70;;;18.30;99.90;;;;;;5003284;28;20046;-62
2022/12/04 11:05:54;;;;;;;4.95;0.90;;;18.30;99.90;;;;;;5004957;28;20022;-63
2022/12/04 11:08:30;;;;;;;3.85;0.70;;;18.20;99.90;;;;;;5004874;28;20040;-63
2022/12/04 11:11:10;;;;;;;4.50;0.85;;;18.20;99.90;;;;;;5006606;28;20591;-63
2022/12/04 11:13:38;;;;;;;5.57;1.23;;;18.10;99.90;;;;;;5006473;28;20844;-63
2022/12/04 11:16:06;;;;;;;2.08;0.60;;;18.10;99.90;;;;;;5002238;28;20033;-63
2022/12/04 11:18:46;;;;;;;5.88;1.65;;;18.00;99.90;;;;;;5018281;28;20048;-63
2022/12/04 11:21:23;;;;;;;6.60;0.93;;;18.00;99.90;;;;;;5005080;28;20034;-63
2022/12/04 11:23:51;;;;;;;10.23;1.55;;;18.00;99.90;;;;;;5007584;28;20022;-63
2022/12/04 11:26:36;;;;;;;5.43;0.90;;;17.90;99.90;;;;;;5003262;28;20029;-63
2022/12/04 11:29:04;;;;;;;;;;;17.80;99.90;;;;;;5007214;28;20034;-62
2022/12/04 11:31:32;;;;;;;5.38;0.95;;;17.80;99.90;;;;;;4999927;28;20327;-63
2022/12/04 11:34:04;;;;;;;8.20;0.90;;;17.80;99.90;;;;;;4991556;28;20047;-62
2022/12/04 11:36:42;;;;;;;3.97;0.90;;;17.70;99.90;;;;;;4996574;28;20435;-63
2022/12/04 11:39:24;;;;;;;10.13;0.88;;;17.70;99.90;;;;;;5005340;28;20030;-63
2022/12/04 11:42:17;;;;;;;3.65;0.90;;;17.70;99.90;;;;;;5007359;28;20125;-63
2022/12/04 11:45:20;;;;;;;3.15;1.00;;;17.70;99.90;;;;;;5007265;28;20028;-63
2022/12/04 11:47:59;;;;;;;6.10;0.90;;;17.60;99.90;;;;;;4999124;28;20045;-63
2022/12/04 11:50:30;;;;;;;2.17;0.73;;;17.60;99.90;;;;;;4999796;28;20590;-64
2022/12/04 11:53:39;;;;;;;4.25;0.80;;;17.50;99.90;;;;;;5006855;28;20740;-64
2022/12/04 11:56:15;;;;;;;3.13;0.95;;;17.40;99.90;;;;;;5005050;28;20044;-64
2022/12/04 11:59:45;;;;;;;2.88;0.82;;;17.40;99.90;;;;;;5000828;28;20018;-62
2022/12/04 12:02:18;;;;;;;5.85;0.77;;;17.40;99.90;;;;;;4987383;28;20133;-63
2022/12/04 12:05:00;;;;;;;7.10;1.00;;;17.30;99.90;;;;;;4987681;28;20153;-63
2022/12/04 12:07:50;;;;;;;6.03;1.38;;;17.20;99.90;;;;;;5005441;28;20034;-64
2022/12/04 12:10:29;;;;;;;4.85;1.13;;;17.20;99.90;;;;;;5001777;28;20080;-63
2022/12/04 12:13:20;;;;;;;4.70;1.30;;;17.10;99.90;;;;;;5007908;28;20041;-63
2022/12/04 12:16:08;;;;;;;5.35;1.92;;;17.00;99.90;;;;;;5003188;28;20061;-64
2022/12/04 12:18:54;;;;;;;6.88;2.20;;;16.90;99.90;;;;;;5002647;28;20742;-61
2022/12/04 12:21:32;;;;;;;9.40;3.25;;;16.80;99.90;;;;;;5009887;28;20560;-62
2022/12/04 12:24:31;;;;;;;6.75;2.15;;;16.70;99.90;;;;;;5008038;28;20036;-64
2022/12/04 12:27:19;;;;;;;8.05;2.30;;;16.70;99.90;;;;;;5009170;28;20076;-63
2022/12/04 12:30:01;;;;;;;8.27;2.30;;;16.70;99.90;;;;;;5003066;28;20042;-63
2022/12/04 12:33:03;;;;;;;7.18;2.38;;;16.60;99.90;;;;;;5011768;28;20018;-63
2022/12/04 12:35:35;;;;;;;8.05;2.35;;;16.70;99.90;;;;;;5005778;28;20061;-64
2022/12/04 12:38:27;;;;;;;11.57;2.03;;;16.60;99.90;;;;;;4993011;28;20042;-64
2022/12/04 12:41:15;;;;;;;7.32;1.75;;;16.60;99.90;;;;;;5003901;28;20042;-64
2022/12/04 12:43:51;;;;;;;5.72;1.38;;;16.50;99.90;;;;;;5001720;28;20392;-63
2022/12/04 12:46:31;;;;;;;5.20;1.15;;;16.50;99.90;;;;;;5011001;28;20026;-63
2022/12/04 12:49:30;;;;;;;7.88;1.23;;;16.40;99.90;;;;;;5007551;28;20018;-63
2022/12/04 12:52:24;;;;;;;4.78;1.02;;;16.40;99.90;;;;;;5011269;28;20030;-64
2022/12/04 12:54:57;;;;;;;5.68;1.60;;;16.30;99.90;;;;;;4998386;28;20078;-63
2022/12/04 12:57:34;;;;;;;4.68;1.55;;;16.20;99.90;;;;;;4998561;28;20021;-63
2022/12/04 13:00:22;;;;;;;6.38;1.98;;;16.10;99.90;;;;;;5001654;28;20042;-63
2022/12/04 13:03:06;;;;;;;8.07;1.73;;;16.00;99.90;;;;;;4996724;28;20322;-63
2022/12/04 13:05:55;;;;;;;10.75;2.17;;;15.90;99.90;;;;;;5007540;28;20052;-63
2022/12/04 13:08:45;;;;;;;6.32;1.55;;;15.90;99.90;;;;;;5009370;28;20030;-63
2022/12/04 13:11:19;;;;;;;4.05;1.63;;;15.90;99.90;;;;;;5009226;28;20026;-63
2022/12/04 13:13:53;;;;;;;13.93;2.60;;;15.90;99.90;;;;;;5006820;28;20114;-63
2022/12/04 13:16:26;;;;;;;12.60;2.55;;;15.90;99.90;;;;;;5006936;28;20022;-64
2022/12/04 13:19:17;;;;;;;12.05;2.08;;;16.00;99.90;;;;;;5011289;28;20109;-63
2022/12/04 13:21:47;;;;;;;6.00;1.42;;;16.20;99.90;;;;;;5012012;28;20546;-63
2022/12/04 13:24:35;;;;;;;4.55;1.40;;;16.40;99.90;;;;;;5011864;28;20710;-62
2022/12/04 13:27:21;;;;;;;4.05;1.58;;;16.40;99.90;;;;;;5012118;28;20037;-62
2022/12/04 13:30:14;;;;;;;2.90;0.90;;;16.40;99.90;;;;;;5010383;28;20325;-63
2022/12/04 13:32:50;;;;;;;7.07;1.13;;;16.40;99.90;;;;;;5008176;28;20791;-62
2022/12/04 13:35:41;;;;;;;8.05;1.50;;;16.40;99.90;;;;;;5011173;28;20595;-62
2022/12/04 13:38:27;;;;;;;5.00;0.90;;;16.40;99.90;;;;;;5012158;28;20497;-62